Time;durP1;ratioP1;P1;durP2;ratioP2;P2;SDS_P1;SDS_P2;PMS_P1;PMS_P2;Temp;Humidity;BMP_temperature;BMP_pressure;BME280_temperature;BME280_humidity;BME280_pressure;Samples;Min_cycle;Max_cycle;Signal;HPM_P1;HPM_P2
2021/12/29 00:01:24;;;;;;;14.20;10.98;;;;;;;7.63;86.64;98610.38;5013158;28;20068;-56
2021/12/29 00:03:50;;;;;;;17.95;10.90;;;;;;;7.63;86.81;98612.97;4996526;28;20038;-54
2021/12/29 00:06:18;;;;;;;18.75;11.63;;;;;;;7.63;86.81;98615.53;5013230;28;20405;-56
2021/12/29 00:08:44;;;;;;;13.75;9.90;;;;;;;7.63;86.54;98620.69;4996049;28;20042;-56
2021/12/29 00:11:09;;;;;;;16.88;10.80;;;;;;;7.64;86.63;98637.03;5013552;28;20038;-56
2021/12/29 00:13:43;;;;;;;16.23;11.00;;;;;;;7.63;86.71;98641.31;5013793;28;20044;-55
2021/12/29 00:16:09;;;;;;;;;;;;;;;7.61;86.84;98630.16;5014047;28;20493;-55
2021/12/29 00:18:39;;;;;;;20.42;11.13;;;;;;;7.60;86.92;98651.66;5012347;28;19928;-55
2021/12/29 00:21:08;;;;;;;17.20;10.75;;;;;;;7.61;86.87;98646.50;4995828;28;20078;-56
2021/12/29 00:23:34;;;;;;;18.95;11.25;;;;;;;7.60;86.71;98637.03;4995801;28;20052;-55
2021/12/29 00:26:05;;;;;;;13.30;10.30;;;;;;;7.61;86.56;98648.22;5012430;28;20506;-55
2021/12/29 00:28:36;;;;;;;;;;;;;;;7.59;86.69;98653.34;5012766;28;20482;-55
2021/12/29 00:31:04;;;;;;;17.08;9.60;;;;;;;7.58;86.67;98653.34;5012134;28;19913;-55
2021/12/29 00:33:33;;;;;;;17.75;9.30;;;;;;;7.59;86.70;98661.09;5013444;28;20037;-55
2021/12/29 00:35:58;;;;;;;14.15;9.45;;;;;;;7.60;86.60;98674.84;5013164;28;20460;-55
2021/12/29 00:38:28;;;;;;;14.02;9.25;;;;;;;7.58;86.61;98674.81;5013241;28;20038;-55
2021/12/29 00:40:57;;;;;;;13.68;10.05;;;;;;;7.59;86.77;98679.13;4996120;28;20034;-55
2021/12/29 00:43:28;;;;;;;13.48;8.48;;;;;;;7.61;86.75;98686.91;5011985;28;20033;-55
2021/12/29 00:45:59;;;;;;;11.88;9.05;;;;;;;7.59;86.70;98692.03;5012581;28;20045;-55
2021/12/29 00:48:35;;;;;;;11.40;8.13;;;;;;;7.61;86.58;98690.31;4980438;28;20099;-55
2021/12/29 00:51:04;;;;;;;13.80;8.05;;;;;;;7.59;86.82;98686.88;5013020;28;20042;-55
2021/12/29 00:53:33;;;;;;;12.07;7.45;;;;;;;7.59;86.86;98686.88;4995760;28;20522;-55
2021/12/29 00:56:00;;;;;;;19.52;8.45;;;;;;;7.59;86.73;98689.44;5013220;28;20124;-55
2021/12/29 00:58:29;;;;;;;9.10;7.47;;;;;;;7.60;86.73;98690.31;4995557;28;20080;-55
2021/12/29 01:00:56;;;;;;;10.50;8.02;;;;;;;7.59;86.81;98697.19;5015279;28;20481;-55
2021/12/29 01:03:24;;;;;;;13.55;7.53;;;;;;;7.59;86.61;98696.34;4999192;28;20046;-55
2021/12/29 01:05:56;;;;;;;11.63;6.53;;;;;;;7.59;86.52;98710.06;5015482;28;20041;-55
2021/12/29 01:08:24;;;;;;;10.13;7.57;;;;;;;7.59;86.71;98720.38;4999292;28;20049;-55
2021/12/29 01:10:49;;;;;;;10.93;7.85;;;;;;;7.59;86.70;98722.13;5016441;28;20119;-55
2021/12/29 01:13:29;;;;;;;10.20;6.93;;;;;;;7.59;86.69;98730.69;5016524;28;20126;-55
2021/12/29 01:18:37;;;;;;;13.93;7.22;;;;;;;7.60;86.44;98726.44;5015207;28;20573;-55
2021/12/29 01:21:04;;;;;;;13.40;6.53;;;;;;;7.58;86.58;98728.97;5015791;28;20508;-55
2021/12/29 01:23:32;;;;;;;8.02;5.78;;;;;;;7.57;86.70;98737.56;4998638;28;20040;-55
2021/12/29 01:26:01;;;;;;;9.20;6.78;;;;;;;7.58;86.64;98741.88;5016344;28;20092;-55
2021/12/29 01:28:29;;;;;;;11.00;5.93;;;;;;;7.57;86.63;98739.28;4998615;28;20038;-55
2021/12/29 01:30:59;;;;;;;10.43;5.95;;;;;;;7.58;86.69;98736.72;5016142;28;20038;-55
2021/12/29 01:33:31;;;;;;;9.35;5.95;;;;;;;7.56;86.62;98748.72;5015140;28;20034;-55
2021/12/29 01:36:02;;;;;;;9.27;6.38;;;;;;;7.56;86.61;98766.78;5014602;28;20037;-55
2021/12/29 01:38:31;;;;;;;9.40;6.30;;;;;;;7.55;86.57;98767.63;4998275;28;20061;-55
2021/12/29 01:40:56;;;;;;;9.23;6.45;;;;;;;7.57;86.48;98776.22;5015639;28;20052;-55
2021/12/29 01:43:24;;;;;;;8.43;5.47;;;;;;;7.56;86.47;98782.25;5014597;28;20038;-55
2021/12/29 01:45:52;;;;;;;10.43;6.82;;;;;;;7.56;86.55;98784.81;5014604;28;20095;-55
2021/12/29 01:48:18;;;;;;;7.63;6.00;;;;;;;7.56;86.74;98787.41;5014510;28;20038;-55
2021/12/29 01:50:51;;;;;;;9.82;6.85;;;;;;;7.55;86.74;98788.25;4998333;28;20060;-55
2021/12/29 01:53:27;;;;;;;7.60;5.75;;;;;;;7.56;86.53;98804.59;5014667;28;20057;-55
2021/12/29 01:55:54;;;;;;;9.02;6.40;;;;;;;7.56;86.52;98804.59;5015769;28;20513;-55
2021/12/29 01:58:21;;;;;;;13.32;6.05;;;;;;;7.54;86.48;98801.13;5015682;28;20509;-55
2021/12/29 02:00:51;;;;;;;7.57;6.38;;;;;;;7.56;86.48;98799.44;5015554;28;20029;-55
2021/12/29 02:03:21;;;;;;;11.50;7.15;;;;;;;7.54;86.49;98793.41;4997800;28;20053;-55
2021/12/29 02:05:49;;;;;;;10.85;6.60;;;;;;;7.55;86.65;98805.44;5015296;28;20042;-55
2021/12/29 02:08:21;;;;;;;11.57;6.85;;;;;;;7.56;86.72;98807.19;5013743;28;20128;-55
2021/12/29 02:10:52;;;;;;;10.27;7.18;;;;;;;7.54;86.47;98807.19;5014031;28;20036;-55
2021/12/29 02:13:23;;;;;;;9.80;6.25;;;;;;;7.55;86.48;98816.59;4998041;28;20168;-55
2021/12/29 02:15:52;;;;;;;15.88;7.32;;;;;;;7.55;86.60;98831.22;5013834;28;20072;-55
2021/12/29 02:18:19;;;;;;;10.50;7.65;;;;;;;7.55;86.73;98841.53;5014058;28;20112;-55
2021/12/29 02:20:48;;;;;;;11.30;6.95;;;;;;;7.55;86.42;98838.97;5015037;28;20030;-55
2021/12/29 02:23:20;;;;;;;13.35;7.97;;;;;;;7.54;86.65;98827.81;4998055;28;20382;-55
2021/12/29 02:25:57;;;;;;;10.80;7.80;;;;;;;7.56;86.56;98835.53;4997312;28;20552;-55
2021/12/29 02:28:43;;;;;;;10.27;7.68;;;;;;;7.55;86.34;98819.19;5013661;28;20037;-55
2021/12/29 02:31:08;;;;;;;15.65;8.50;;;;;;;7.54;86.57;98816.59;5013108;28;20085;-55
2021/12/29 02:33:35;;;;;;;11.32;7.25;;;;;;;7.53;86.50;98815.75;5014177;28;20046;-55
2021/12/29 02:36:04;;;;;;;7.93;7.03;;;;;;;7.54;86.16;98817.50;5014992;28;20108;-55
2021/12/29 02:38:34;;;;;;;11.15;7.75;;;;;;;7.54;86.71;98824.34;4997202;28;20065;-55
2021/12/29 02:41:08;;;;;;;12.07;8.43;;;;;;;7.55;86.40;98829.50;5014822;28;20073;-55
2021/12/29 02:43:37;;;;;;;13.02;7.93;;;;;;;7.54;86.47;98838.13;5014767;28;20037;-55
2021/12/29 02:46:08;;;;;;;12.98;7.82;;;;;;;7.55;86.41;98844.13;5014535;28;20041;-55
2021/12/29 02:48:41;;;;;;;9.13;6.93;;;;;;;7.54;86.21;98845.84;5013866;28;20046;-55
2021/12/29 02:51:09;;;;;;;12.38;8.00;;;;;;;7.54;86.63;98845.84;5014897;28;20096;-55
2021/12/29 02:53:38;;;;;;;12.20;7.75;;;;;;;7.54;86.32;98852.72;4997017;28;20042;-55
2021/12/29 02:56:06;;;;;;;12.85;7.28;;;;;;;7.53;86.32;98850.97;5014411;28;20080;-55
2021/12/29 02:58:32;;;;;;;17.85;8.45;;;;;;;7.54;86.57;98852.72;4997693;28;20037;-54
2021/12/29 03:01:02;;;;;;;11.55;8.18;;;;;;;7.53;86.34;98850.97;4996845;28;20030;-55
2021/12/29 03:03:33;;;;;;;16.20;7.78;;;;;;;7.53;86.63;98856.13;5014935;28;20077;-55
2021/12/29 03:05:58;;;;;;;13.05;7.65;;;;;;;7.53;86.54;98862.16;5013296;28;20038;-54
2021/12/29 03:08:26;;;;;;;11.88;8.25;;;;;;;7.52;86.38;98855.28;5012617;28;20047;-55
2021/12/29 03:10:57;;;;;;;9.40;7.47;;;;;;;7.52;86.56;98860.44;4996546;28;20049;-55
2021/12/29 03:13:28;;;;;;;10.73;7.30;;;;;;;7.53;86.20;98858.72;4996499;28;20041;-55
2021/12/29 03:15:55;;;;;;;10.13;7.65;;;;;;;7.52;86.47;98855.28;5013358;28;20604;-55
2021/12/29 03:18:23;;;;;;;8.73;7.82;;;;;;;7.53;86.20;98861.28;4996651;28;20413;-56
2021/12/29 03:20:51;;;;;;;10.63;7.22;;;;;;;7.51;86.52;98866.44;5012767;28;20041;-55
2021/12/29 03:23:18;;;;;;;10.13;6.68;;;;;;;7.50;86.32;98869.88;5013013;28;20030;-55
2021/12/29 03:25:49;;;;;;;9.65;8.15;;;;;;;7.50;85.91;98875.03;4997248;28;20068;-55
2021/12/29 03:28:20;;;;;;;9.63;7.13;;;;;;;7.51;86.22;98868.13;4996370;28;20485;-55
2021/12/29 03:30:50;;;;;;;10.98;7.38;;;;;;;7.51;86.46;98874.19;4996685;28;20053;-55
2021/12/29 03:33:19;;;;;;;12.20;7.38;;;;;;;7.51;86.54;98874.19;5012425;28;20413;-55
2021/12/29 03:35:52;;;;;;;8.30;6.82;;;;;;;7.52;86.46;98878.50;4996100;28;20528;-55
2021/12/29 03:38:24;;;;;;;9.20;6.80;;;;;;;7.51;86.35;98884.50;5013174;28;20413;-55
2021/12/29 03:40:54;;;;;;;12.02;7.20;;;;;;;7.51;86.40;98888.75;4996746;28;20092;-55
2021/12/29 03:43:24;;;;;;;12.73;7.28;;;;;;;7.51;86.33;98884.50;5013598;28;20088;-55
2021/12/29 03:45:52;;;;;;;10.70;7.75;;;;;;;7.50;86.36;98897.34;4996524;28;20040;-55
2021/12/29 03:48:23;;;;;;;9.18;6.32;;;;;;;7.50;86.53;98898.22;5012611;28;20037;-55
2021/12/29 03:50:51;;;;;;;11.10;6.80;;;;;;;7.50;86.21;98905.97;5013265;28;20044;-55
2021/12/29 03:53:17;;;;;;;11.75;7.03;;;;;;;7.51;86.54;98910.28;5012825;28;20034;-55
2021/12/29 03:55:51;;;;;;;10.27;7.85;;;;;;;7.51;86.05;98910.28;5012212;28;20033;-55
2021/12/29 03:58:22;;;;;;;13.05;6.65;;;;;;;7.50;86.20;98912.81;5012392;28;20112;-56
2021/12/29 04:00:59;;;;;;;9.98;6.68;;;;;;;7.49;86.10;98918.81;4996092;28;20045;-55
2021/12/29 04:03:25;;;;;;;12.13;6.93;;;;;;;7.49;86.44;98911.97;4995736;28;20093;-55
2021/12/29 04:05:51;;;;;;;8.20;6.30;;;;;;;7.50;86.53;98915.41;5013608;28;20551;-55
2021/12/29 04:08:16;;;;;;;12.10;7.18;;;;;;;7.50;86.03;98921.44;5012679;28;20038;-56
2021/12/29 04:10:45;;;;;;;9.80;7.68;;;;;;;7.50;86.06;98921.44;5013457;28;20042;-55
2021/12/29 04:13:16;;;;;;;11.13;7.82;;;;;;;7.51;86.28;98906.81;5013149;28;20509;-55
2021/12/29 04:15:42;;;;;;;9.48;7.30;;;;;;;7.49;86.31;98917.13;4995673;28;20470;-54
2021/12/29 04:18:26;;;;;;;11.25;8.23;;;;;;;7.50;86.37;98920.56;5012345;28;20034;-55
2021/12/29 04:20:57;;;;;;;12.20;7.13;;;;;;;7.50;86.30;98928.28;5012101;28;20476;-55
2021/12/29 04:23:35;;;;;;;11.90;6.80;;;;;;;7.49;86.26;98931.72;5013588;28;20128;-56
2021/12/29 04:26:04;;;;;;;7.35;6.32;;;;;;;7.49;86.31;98934.28;4995900;28;20105;-56
2021/12/29 04:28:30;;;;;;;12.68;7.15;;;;;;;7.48;86.24;98933.44;4996591;28;20041;-55
2021/12/29 04:30:59;;;;;;;9.00;6.97;;;;;;;7.47;86.42;98936.88;5013231;28;20121;-55
2021/12/29 04:33:26;;;;;;;12.25;7.60;;;;;;;7.49;86.48;98948.06;5012106;28;20095;-55
2021/12/29 04:35:55;;;;;;;13.32;7.45;;;;;;;7.48;86.23;98951.50;4999613;28;20130;-55
2021/12/29 04:38:24;;;;;;;10.43;7.05;;;;;;;7.49;86.21;98947.19;4999414;28;20029;-55
2021/12/29 04:40:55;;;;;;;13.05;7.60;;;;;;;7.47;86.45;98950.59;4999359;28;20050;-55
2021/12/29 04:43:25;;;;;;;13.52;7.90;;;;;;;7.49;86.32;98952.34;5016164;28;20041;-55
2021/12/29 04:45:56;;;;;;;14.38;8.30;;;;;;;7.47;86.24;98947.19;4999457;28;20034;-55
2021/12/29 04:48:23;;;;;;;14.23;6.90;;;;;;;7.47;86.38;98950.59;4999320;28;20034;-55
2021/12/29 04:50:52;;;;;;;11.18;6.57;;;;;;;7.49;86.32;98944.59;5015470;28;20516;-55
2021/12/29 04:53:23;;;;;;;11.75;7.75;;;;;;;7.49;86.60;98947.19;5015492;28;20038;-55
2021/12/29 04:55:51;;;;;;;11.20;7.45;;;;;;;7.49;86.00;98958.38;5015616;28;20556;-55
2021/12/29 04:58:21;;;;;;;14.68;8.52;;;;;;;7.49;86.34;98960.06;4999308;28;20489;-55
2021/12/29 05:00:48;;;;;;;13.25;8.27;;;;;;;7.49;86.42;98957.50;5015648;28;20500;-55
2021/12/29 05:03:14;;;;;;;14.15;7.95;;;;;;;7.47;86.33;98953.19;5016741;28;20054;-55
2021/12/29 05:05:55;;;;;;;14.10;7.50;;;;;;;7.46;86.43;98948.03;5015251;28;20049;-55
2021/12/29 05:08:25;;;;;;;10.27;6.90;;;;;;;7.46;86.27;98948.91;5016181;28;20037;-55
2021/12/29 05:10:52;;;;;;;12.85;8.32;;;;;;;7.46;86.34;98956.63;5016757;28;20143;-55
2021/12/29 05:13:20;;;;;;;14.95;7.65;;;;;;;7.47;86.02;98962.66;5016548;28;20044;-55
2021/12/29 05:15:48;;;;;;;10.48;7.00;;;;;;;7.46;86.43;98966.94;4998866;28;20045;-55
2021/12/29 05:18:17;;;;;;;15.88;7.18;;;;;;;7.47;86.12;98972.97;4998340;28;20052;-55
2021/12/29 05:20:45;;;;;;;12.15;6.97;;;;;;;7.47;86.33;98980.69;5015550;28;20041;-55
2021/12/29 05:23:11;;;;;;;12.18;7.45;;;;;;;7.48;86.34;98985.00;4998768;28;20033;-55
2021/12/29 05:25:39;;;;;;;9.85;7.25;;;;;;;7.47;86.25;98985.84;5016065;28;20037;-55
2021/12/29 05:28:08;;;;;;;8.65;6.97;;;;;;;7.46;86.46;98985.00;5016130;28;20038;-55
2021/12/29 05:30:35;;;;;;;12.43;7.32;;;;;;;7.47;86.24;98989.28;5016123;28;20069;-55
2021/12/29 05:33:01;;;;;;;9.52;7.38;;;;;;;7.47;86.45;98989.28;4998240;28;20508;-55
2021/12/29 05:35:30;;;;;;;13.80;6.95;;;;;;;7.46;86.27;98990.16;5014768;28;20087;-55
2021/12/29 05:37:59;;;;;;;12.70;7.32;;;;;;;7.46;86.17;98995.31;4998586;28;20125;-55
2021/12/29 05:40:29;;;;;;;11.00;6.65;;;;;;;7.47;85.97;99006.47;5015802;28;20129;-55
2021/12/29 05:42:56;;;;;;;17.05;7.28;;;;;;;7.46;86.27;99007.31;4998488;28;20069;-55
2021/12/29 05:45:23;;;;;;;14.45;8.55;;;;;;;7.46;86.48;99009.91;4997635;28;20069;-55
2021/12/29 05:47:58;;;;;;;19.20;6.18;;;;;;;7.46;86.30;99003.06;5014648;28;20041;-55
2021/12/29 05:50:28;;;;;;;12.65;7.00;;;;;;;7.47;86.21;98996.16;5016164;28;20180;-55
2021/12/29 05:53:00;;;;;;;17.83;8.18;;;;;;;7.47;86.17;98998.75;5015811;28;20030;-55
2021/12/29 05:55:26;;;;;;;17.08;7.05;;;;;;;7.47;86.35;98998.75;4998433;28;20049;-55
2021/12/29 05:57:55;;;;;;;12.90;7.28;;;;;;;7.47;86.26;98998.75;5015686;28;20410;-55
2021/12/29 06:00:22;;;;;;;14.73;6.68;;;;;;;7.47;86.12;98998.75;4997473;28;20061;-55
2021/12/29 06:02:51;;;;;;;15.38;6.90;;;;;;;7.46;86.28;99007.31;4997912;28;20064;-56
2021/12/29 06:05:20;;;;;;;16.75;6.32;;;;;;;7.47;86.45;99009.06;5015574;28;20044;-55
2021/12/29 06:07:49;;;;;;;13.10;6.63;;;;;;;7.47;86.52;99009.91;4998145;28;20489;-55
2021/12/29 06:10:17;;;;;;;8.07;5.70;;;;;;;7.47;86.37;99014.22;5014251;28;20041;-55
2021/12/29 06:12:43;;;;;;;9.05;6.55;;;;;;;7.47;86.51;99015.06;5015128;28;20033;-55
2021/12/29 06:15:10;;;;;;;11.32;5.88;;;;;;;7.47;86.29;99019.38;5014389;28;20104;-55
2021/12/29 06:17:41;;;;;;;12.98;6.35;;;;;;;7.47;86.38;99014.22;5014217;28;20064;-55
2021/12/29 06:20:12;;;;;;;13.50;6.30;;;;;;;7.48;86.30;99008.22;5015084;28;20077;-55
2021/12/29 06:22:40;;;;;;;14.25;6.75;;;;;;;7.46;86.46;99007.31;4997563;28;20038;-55
2021/12/29 06:25:09;;;;;;;12.98;6.30;;;;;;;7.45;86.48;99011.63;5015219;28;20034;-55
2021/12/29 06:27:35;;;;;;;17.52;7.85;;;;;;;7.46;86.36;99020.22;5013994;28;20046;-55
2021/12/29 06:30:06;;;;;;;20.38;6.95;;;;;;;7.46;86.22;99018.53;5015311;28;20041;-55
2021/12/29 06:32:34;;;;;;;16.25;6.45;;;;;;;7.46;86.31;99010.78;5014330;28;20030;-55
2021/12/29 06:35:05;;;;;;;14.13;6.80;;;;;;;7.45;86.13;99018.47;5013720;28;20046;-55
2021/12/29 06:37:36;;;;;;;18.92;7.35;;;;;;;7.45;86.12;99015.91;4997532;28;20038;-55
2021/12/29 06:40:04;;;;;;;11.35;6.65;;;;;;;7.45;86.28;99015.91;5013456;28;20053;-55
2021/12/29 06:42:30;;;;;;;14.13;7.30;;;;;;;7.45;86.15;99023.63;4997409;28;20037;-55
2021/12/29 06:44:58;;;;;;;14.82;6.97;;;;;;;7.44;86.19;99022.78;5014628;28;20029;-55
2021/12/29 06:47:27;;;;;;;14.57;7.22;;;;;;;7.44;86.47;99020.22;5014807;28;20038;-55
2021/12/29 06:49:53;;;;;;;16.27;6.97;;;;;;;7.45;86.31;99039.09;5013001;28;20060;-55
2021/12/29 06:52:24;;;;;;;15.50;7.43;;;;;;;7.44;86.27;99053.72;5013539;28;20041;-55
2021/12/29 06:54:52;;;;;;;14.45;6.32;;;;;;;7.45;86.11;99044.25;5014683;28;20034;-55
2021/12/29 06:57:18;;;;;;;19.38;8.05;;;;;;;7.45;86.04;99034.81;5012806;28;20034;-56
2021/12/29 06:59:46;;;;;;;12.18;7.78;;;;;;;7.44;86.06;99046.00;5013518;28;20038;-55
2021/12/29 07:02:17;;;;;;;14.32;8.68;;;;;;;7.44;86.14;99053.72;5012926;28;20096;-55
2021/12/29 07:04:45;;;;;;;12.02;6.82;;;;;;;7.45;86.19;99059.72;4996670;28;20042;-55
2021/12/29 07:07:14;;;;;;;15.43;7.82;;;;;;;7.43;86.39;99049.41;5012752;28;20386;-55
2021/12/29 07:09:39;;;;;;;17.17;7.15;;;;;;;7.44;86.15;99066.59;5013419;28;20044;-55
2021/12/29 07:12:07;;;;;;;18.67;7.72;;;;;;;7.44;86.47;99060.56;5013018;28;20050;-55
2021/12/29 07:14:37;;;;;;;18.55;7.00;;;;;;;7.44;86.29;99061.47;5013041;28;20038;-55
2021/12/29 07:17:03;;;;;;;11.63;6.97;;;;;;;7.45;86.25;99059.72;5014196;28;20030;-55
2021/12/29 07:19:29;;;;;;;14.85;7.72;;;;;;;7.44;86.29;99058.88;4996513;28;20109;-55
2021/12/29 07:21:54;;;;;;;15.15;6.70;;;;;;;7.45;86.26;99075.19;5014068;28;20155;-55
2021/12/29 07:24:23;;;;;;;13.20;6.57;;;;;;;7.44;86.23;99064.03;5013791;28;20124;-55
2021/12/29 07:26:54;;;;;;;12.70;6.60;;;;;;;7.45;85.95;99073.50;5012747;28;20034;-55
2021/12/29 07:29:26;;;;;;;13.00;6.18;;;;;;;7.45;85.88;99070.03;5012579;28;20485;-55
2021/12/29 07:31:53;;;;;;;12.65;6.25;;;;;;;7.43;85.99;99069.16;5012528;28;20037;-55
2021/12/29 07:34:21;;;;;;;11.02;6.50;;;;;;;7.43;86.13;99062.31;5013956;28;20142;-55
2021/12/29 07:36:50;;;;;;;14.95;6.70;;;;;;;7.43;86.08;99082.94;5013955;28;20389;-55
2021/12/29 07:39:16;;;;;;;21.83;6.10;;;;;;;7.43;85.95;99080.34;4996286;28;20054;-55
2021/12/29 07:41:47;;;;;;;13.82;5.30;;;;;;;7.41;86.17;99082.03;5012293;28;20192;-55
2021/12/29 07:44:17;;;;;;;14.20;6.38;;;;;;;7.41;85.94;99069.16;4996267;28;20030;-55
2021/12/29 07:46:49;;;;;;;11.43;5.47;;;;;;;7.41;85.90;99074.31;5012483;28;20030;-55
2021/12/29 07:49:15;;;;;;;9.73;4.90;;;;;;;7.41;86.04;99082.03;5012693;28;20038;-55
2021/12/29 07:51:43;;;;;;;8.82;4.68;;;;;;;7.40;86.12;99082.88;5012334;28;20125;-55
2021/12/29 07:54:13;;;;;;;9.30;5.25;;;;;;;7.40;85.95;99082.88;5013674;28;20045;-55
2021/12/29 07:56:45;;;;;;;8.65;5.13;;;;;;;7.40;86.26;99089.72;4996464;28;20041;-55
2021/12/29 07:59:11;;;;;;;6.65;4.15;;;;;;;7.39;85.88;99090.59;5013660;28;20038;-54
2021/12/29 08:01:39;;;;;;;15.40;5.57;;;;;;;7.39;86.10;99090.59;4995736;28;20405;-55
2021/12/29 08:04:14;;;;;;;11.93;5.47;;;;;;;7.38;86.20;99089.72;5012166;28;20408;-56
2021/12/29 08:06:40;;;;;;;6.90;4.78;;;;;;;7.38;86.17;99091.44;4996312;28;20069;-54
2021/12/29 08:09:09;;;;;;;10.20;5.20;;;;;;;7.38;86.26;99088.88;5014366;28;20033;-55
2021/12/29 08:11:40;;;;;;;15.77;5.72;;;;;;;7.37;85.84;99089.72;5000300;28;20050;-55
2021/12/29 08:14:08;;;;;;;8.20;5.30;;;;;;;7.37;86.16;99090.56;5000142;28;20053;-55
2021/12/29 08:16:36;;;;;;;10.15;4.32;;;;;;;7.36;86.26;99088.81;5000467;28;20041;-55
2021/12/29 08:19:03;;;;;;;8.48;4.55;;;;;;;7.36;86.15;99088.81;4999911;28;20038;-55
2021/12/29 08:21:29;;;;;;;14.00;4.38;;;;;;;7.35;85.98;99087.09;4999747;28;20037;-55
2021/12/29 08:23:59;;;;;;;11.65;5.00;;;;;;;7.35;85.95;99086.25;5016284;28;20046;-55
2021/12/29 08:26:28;;;;;;;17.48;5.22;;;;;;;7.34;86.13;99087.94;5016223;28;20057;-56
2021/12/29 08:28:57;;;;;;;9.95;4.38;;;;;;;7.36;85.94;99087.97;5017386;28;20037;-56
2021/12/29 08:31:28;;;;;;;9.02;4.90;;;;;;;7.34;85.92;99092.25;4999944;28;20608;-55
2021/12/29 08:33:56;;;;;;;12.95;4.82;;;;;;;7.33;86.06;99099.09;5015958;28;20045;-55
2021/12/29 08:36:23;;;;;;;15.68;4.80;;;;;;;7.33;86.22;99104.25;5016017;28;20038;-55
2021/12/29 08:38:51;;;;;;;8.02;5.13;;;;;;;7.33;86.03;99101.66;5017230;28;20029;-55
2021/12/29 08:41:17;;;;;;;14.38;4.60;;;;;;;7.32;85.84;99105.09;5016791;28;20034;-55
2021/12/29 08:43:45;;;;;;;12.30;5.13;;;;;;;7.31;86.02;99109.41;5017010;28;20029;-56
2021/12/29 08:46:10;;;;;;;9.52;4.57;;;;;;;7.31;86.18;99096.50;4999377;28;20040;-55
2021/12/29 08:48:37;;;;;;;9.25;4.80;;;;;;;7.31;86.05;99100.81;5017022;28;20046;-55
2021/12/29 08:51:03;;;;;;;16.02;5.20;;;;;;;7.31;86.10;99096.50;5017158;28;20038;-55
2021/12/29 08:53:28;;;;;;;9.10;4.75;;;;;;;7.31;86.05;99101.66;4999494;28;20041;-55
2021/12/29 08:55:56;;;;;;;12.15;5.35;;;;;;;7.32;86.21;99099.94;5016841;28;20029;-55
2021/12/29 08:58:26;;;;;;;9.38;4.60;;;;;;;7.31;85.87;99093.94;5016518;28;20466;-55
2021/12/29 09:00:53;;;;;;;12.35;4.35;;;;;;;7.33;85.98;99091.34;4999129;28;20030;-56
2021/12/29 09:03:19;;;;;;;11.68;4.35;;;;;;;7.31;85.98;99086.19;5014859;28;20042;-55
2021/12/29 09:05:45;;;;;;;8.38;3.95;;;;;;;7.32;85.96;99085.34;4999123;28;20064;-55
2021/12/29 09:08:11;;;;;;;11.43;4.65;;;;;;;7.31;86.00;99082.75;5016491;28;20026;-55
2021/12/29 09:10:36;;;;;;;14.88;5.22;;;;;;;7.31;86.33;99091.34;5015639;28;20034;-55
2021/12/29 09:13:06;;;;;;;8.82;4.82;;;;;;;7.31;85.97;99077.59;5016492;28;20036;-55
2021/12/29 09:15:32;;;;;;;14.32;5.65;;;;;;;7.32;86.32;99076.72;5016774;28;20041;-55
2021/12/29 09:18:00;;;;;;;12.32;6.30;;;;;;;7.32;86.34;99074.16;5016108;28;20519;-55
2021/12/29 09:20:30;;;;;;;17.55;8.80;;;;;;;7.31;86.05;99078.47;4997740;28;20077;-55
2021/12/29 09:23:03;;;;;;;22.10;11.63;;;;;;;7.31;86.16;99078.47;4998717;28;20106;-55
2021/12/29 09:25:32;;;;;;;26.58;13.00;;;;;;;7.32;85.86;99080.19;4998752;28;20489;-55
2021/12/29 09:28:00;;;;;;;26.55;14.68;;;;;;;7.32;85.89;99081.88;5016481;28;20057;-55
2021/12/29 09:30:29;;;;;;;29.85;15.85;;;;;;;7.32;85.96;99089.63;5015863;28;20124;-55
2021/12/29 09:32:55;;;;;;;36.03;15.43;;;;;;;7.32;85.79;99081.88;5015022;28;20037;-55
2021/12/29 09:35:21;;;;;;;31.52;15.45;;;;;;;7.32;85.95;99084.47;5015701;28;20045;-55
2021/12/29 09:37:48;;;;;;;26.40;15.50;;;;;;;7.33;86.22;99091.34;4998366;28;20498;-55
2021/12/29 09:40:16;;;;;;;29.58;14.35;;;;;;;7.31;86.34;99088.78;4998482;28;20088;-56
2021/12/29 09:42:42;;;;;;;24.67;13.93;;;;;;;7.34;86.04;99102.56;5015833;28;20030;-56
2021/12/29 09:45:11;;;;;;;23.85;14.55;;;;;;;7.35;85.99;99093.97;5014419;28;20042;-54
2021/12/29 09:47:41;;;;;;;22.42;11.85;;;;;;;7.33;86.04;99091.34;5014636;28;20038;-56
2021/12/29 09:50:11;;;;;;;26.55;10.98;;;;;;;7.35;86.18;99083.66;4998027;28;20038;-54
2021/12/29 09:52:37;;;;;;;16.08;9.32;;;;;;;7.35;85.84;99083.66;4998759;28;20045;-54
2021/12/29 09:55:09;;;;;;;16.27;8.85;;;;;;;7.34;86.15;99074.19;4998097;28;20042;-56
2021/12/29 09:57:38;;;;;;;16.05;8.90;;;;;;;7.32;86.06;99075.03;4998416;28;20087;-53
2021/12/29 10:00:08;;;;;;;14.35;7.65;;;;;;;7.33;85.87;99078.47;4998166;28;20126;-56
2021/12/29 10:02:33;;;;;;;18.02;7.00;;;;;;;7.34;86.10;99066.47;4997545;28;20501;-56
2021/12/29 10:04:59;;;;;;;14.18;6.38;;;;;;;7.35;85.96;99065.63;5015531;28;20041;-55
2021/12/29 10:07:28;;;;;;;13.50;7.05;;;;;;;7.36;86.03;99072.50;5015788;28;20393;-55
2021/12/29 10:09:54;;;;;;;19.95;7.82;;;;;;;7.35;86.08;99068.19;5015600;28;20037;-56
2021/12/29 10:12:22;;;;;;;14.20;6.93;;;;;;;7.37;86.06;99058.78;4997816;28;20045;-55
2021/12/29 10:14:53;;;;;;;19.50;6.20;;;;;;;7.37;85.99;99061.34;4997803;28;20088;-56
2021/12/29 10:17:21;;;;;;;12.73;5.25;;;;;;;7.37;85.85;99061.34;4997527;28;20485;-55
2021/12/29 10:19:47;;;;;;;18.80;6.88;;;;;;;7.37;86.17;99045.88;4997813;28;20034;-55
2021/12/29 10:22:21;;;;;;;15.85;6.55;;;;;;;7.37;85.82;99049.31;5015157;28;20048;-54
2021/12/29 10:24:47;;;;;;;10.65;5.32;;;;;;;7.38;86.12;99040.75;4997508;28;20085;-56
2021/12/29 10:27:20;;;;;;;13.93;5.38;;;;;;;7.39;86.12;99049.34;4997688;28;20049;-56
2021/12/29 10:29:45;;;;;;;10.25;5.70;;;;;;;7.41;86.03;99057.94;4997616;28;20401;-56
2021/12/29 10:32:11;;;;;;;19.67;6.05;;;;;;;7.41;86.02;99050.22;5014637;28;20046;-56
2021/12/29 10:34:37;;;;;;;8.85;5.20;;;;;;;7.41;86.23;99051.09;5015071;28;20041;-55
2021/12/29 10:37:05;;;;;;;13.10;6.60;;;;;;;7.43;85.91;99044.25;5014647;28;20038;-53
2021/12/29 10:39:41;;;;;;;18.48;7.70;;;;;;;7.43;86.14;99044.25;5014845;28;20088;-56
2021/12/29 10:42:26;;;;;;;18.73;9.68;;;;;;;7.45;86.09;99059.72;4997462;28;20038;-56
2021/12/29 10:44:59;;;;;;;19.77;9.48;;;;;;;7.46;86.15;99056.31;5014203;28;20504;-55
2021/12/29 10:47:32;;;;;;;14.77;8.15;;;;;;;7.44;86.05;99051.16;5015089;28;20033;-56
2021/12/29 10:50:09;;;;;;;17.55;7.28;;;;;;;7.44;86.17;99050.25;4997458;28;20029;-56
2021/12/29 10:52:38;;;;;;;12.45;6.88;;;;;;;7.46;85.87;99044.31;5013241;28;20493;-56
2021/12/29 10:55:19;;;;;;;16.42;6.43;;;;;;;7.46;85.86;99041.72;5012981;28;20038;-55
2021/12/29 10:58:04;;;;;;;11.57;5.70;;;;;;;7.47;86.36;99043.41;5013675;28;20041;-55
2021/12/29 11:00:32;;;;;;;12.45;5.65;;;;;;;7.48;86.16;99041.72;5014693;28;20033;-55
2021/12/29 11:03:28;;;;;;;11.30;6.03;;;;;;;7.49;86.28;99033.16;5012747;28;20053;-55
2021/12/29 11:05:59;;;;;;;11.00;4.63;;;;;;;7.49;86.13;99035.72;4997908;28;20053;-55
2021/12/29 11:08:32;;;;;;;9.85;5.45;;;;;;;7.49;86.25;99030.56;5013046;28;20041;-56
2021/12/29 11:11:06;;;;;;;12.48;5.60;;;;;;;7.50;86.07;99026.25;4996650;28;20413;-55
2021/12/29 11:13:32;;;;;;;9.25;4.85;;;;;;;7.50;86.00;99031.41;5012863;28;20042;-56
2021/12/29 11:16:00;;;;;;;10.15;5.20;;;;;;;7.50;86.21;99021.09;4996361;28;20037;-55
2021/12/29 11:18:28;;;;;;;8.77;4.93;;;;;;;7.50;86.10;99024.56;4997046;28;20042;-56
2021/12/29 11:20:58;;;;;;;12.38;5.88;;;;;;;7.51;86.06;99023.72;4996898;28;20402;-54
2021/12/29 11:23:24;;;;;;;11.13;4.88;;;;;;;7.50;86.05;99013.38;4996893;28;20122;-56
2021/12/29 11:25:51;;;;;;;9.20;4.78;;;;;;;7.52;86.15;99020.31;5013994;28;20116;-53
2021/12/29 11:28:28;;;;;;;11.82;5.03;;;;;;;7.53;86.52;99016.88;5012729;28;20041;-56
2021/12/29 11:30:55;;;;;;;10.00;3.92;;;;;;;7.51;86.18;98997.94;5012987;28;20069;-55
2021/12/29 11:33:26;;;;;;;7.43;4.25;;;;;;;7.54;85.77;98989.38;4996469;28;20040;-56
2021/12/29 11:35:55;;;;;;;7.90;4.28;;;;;;;7.54;86.40;98992.81;5014087;28;20041;-54
2021/12/29 11:38:23;;;;;;;11.10;4.97;;;;;;;7.56;86.14;98996.25;5012376;28;20029;-55
2021/12/29 11:40:51;;;;;;;7.95;4.22;;;;;;;7.56;86.11;99000.56;4995997;28;20497;-54
2021/12/29 11:43:19;;;;;;;10.65;4.07;;;;;;;7.56;86.38;98996.25;5011679;28;20138;-55
2021/12/29 11:45:50;;;;;;;12.13;5.20;;;;;;;7.58;86.28;99002.31;5012277;28;20076;-54